sensor_id;sensor_type;location;lat;lon;timestamp;temperature;humidity
46508;DHT22;32223;53.654;10.014;2024-01-15T00:00:12;1.00;99.90
46508;DHT22;32223;53.654;10.014;2024-01-15T00:02:38;1.00;99.90
46508;DHT22;32223;53.654;10.014;2024-01-15T00:05:04;1.00;99.90
46508;DHT22;32223;53.654;10.014;2024-01-15T00:07:29;1.00;99.90
46508;DHT22;32223;53.654;10.014;2024-01-15T00:09:55;1.00;99.90
46508;DHT22;32223;53.654;10.014;2024-01-15T00:12:20;1.00;99.90
46508;DHT22;32223;53.654;10.014;2024-01-15T00:14:46;1.00;99.90
46508;DHT22;32223;53.654;10.014;2024-01-15T00:17:12;1.00;99.90
46508;DHT22;32223;53.654;10.014;2024-01-15T00:19:38;1.10;99.90
46508;DHT22;32223;53.654;10.014;2024-01-15T00:22:04;1.10;99.90
46508;DHT22;32223;53.654;10.014;2024-01-15T00:24:29;1.10;99.90
46508;DHT22;32223;53.654;10.014;2024-01-15T00:26:55;1.10;99.90
46508;DHT22;32223;53.654;10.014;2024-01-15T00:29:21;1.10;99.90
46508;DHT22;32223;53.654;10.014;2024-01-15T00:31:47;1.10;99.90
46508;DHT22;32223;53.654;10.014;2024-01-15T00:34:12;1.10;99.90
46508;DHT22;32223;53.654;10.014;2024-01-15T00:36:38;1.10;99.90
46508;DHT22;32223;53.654;10.014;2024-01-15T00:39:04;1.10;99.90
46508;DHT22;32223;53.654;10.014;2024-01-15T00:41:31;1.10;99.90
46508;DHT22;32223;53.654;10.014;2024-01-15T00:43:56;1.10;99.90
46508;DHT22;32223;53.654;10.014;2024-01-15T00:46:22;1.10;99.90
46508;DHT22;32223;53.654;10.014;2024-01-15T00:48:47;1.10;99.90
46508;DHT22;32223;53.654;10.014;2024-01-15T00:51:13;1.10;99.90
46508;DHT22;32223;53.654;10.014;2024-01-15T00:53:40;1.10;99.90
46508;DHT22;32223;53.654;10.014;2024-01-15T00:56:05;1.20;99.90
46508;DHT22;32223;53.654;10.014;2024-01-15T00:58:31;1.20;99.90
46508;DHT22;32223;53.654;10.014;2024-01-15T01:00:57;1.20;99.90
46508;DHT22;32223;53.654;10.014;2024-01-15T01:03:22;1.20;99.90
46508;DHT22;32223;53.654;10.014;2024-01-15T01:05:51;1.20;99.90
46508;DHT22;32223;53.654;10.014;2024-01-15T01:08:17;1.30;99.90
46508;DHT22;32223;53.654;10.014;2024-01-15T01:10:42;1.20;99.90
46508;DHT22;32223;53.654;10.014;2024-01-15T01:13:08;1.10;99.90
46508;DHT22;32223;53.654;10.014;2024-01-15T01:15:34;1.10;99.90
46508;DHT22;32223;53.654;10.014;2024-01-15T01:17:59;1.10;99.90
46508;DHT22;32223;53.654;10.014;2024-01-15T01:20:25;1.10;99.90
46508;DHT22;32223;53.654;10.014;2024-01-15T01:22:51;1.10;99.90
46508;DHT22;32223;53.654;10.014;2024-01-15T01:25:16;1.10;99.90
46508;DHT22;32223;53.654;10.014;2024-01-15T01:27:42;1.10;99.90
46508;DHT22;32223;53.654;10.014;2024-01-15T01:30:08;1.20;99.90
46508;DHT22;32223;53.654;10.014;2024-01-15T01:32:34;1.20;99.90
46508;DHT22;32223;53.654;10.014;2024-01-15T01:35:00;1.30;99.90
46508;DHT22;32223;53.654;10.014;2024-01-15T01:37:26;1.20;99.90
46508;DHT22;32223;53.654;10.014;2024-01-15T01:39:51;1.20;99.90
46508;DHT22;32223;53.654;10.014;2024-01-15T01:42:17;1.30;99.90
46508;DHT22;32223;53.654;10.014;2024-01-15T01:44:43;1.30;99.90
46508;DHT22;32223;53.654;10.014;2024-01-15T01:47:08;1.30;99.90
46508;DHT22;32223;53.654;10.014;2024-01-15T01:49:35;1.40;99.90
46508;DHT22;32223;53.654;10.014;2024-01-15T01:52:05;1.40;99.90
46508;DHT22;32223;53.654;10.014;2024-01-15T01:54:32;1.50;99.90
46508;DHT22;32223;53.654;10.014;2024-01-15T01:56:58;1.50;99.90
46508;DHT22;32223;53.654;10.014;2024-01-15T01:59:28;1.60;99.90
46508;DHT22;32223;53.654;10.014;2024-01-15T02:01:57;1.50;99.90
46508;DHT22;32223;53.654;10.014;2024-01-15T02:04:24;1.60;99.90
46508;DHT22;32223;53.654;10.014;2024-01-15T02:06:51;1.60;99.90
46508;DHT22;32223;53.654;10.014;2024-01-15T02:09:17;1.60;99.90
46508;DHT22;32223;53.654;10.014;2024-01-15T02:11:43;1.50;99.90
46508;DHT22;32223;53.654;10.014;2024-01-15T02:14:09;1.60;99.90
46508;DHT22;32223;53.654;10.014;2024-01-15T02:16:35;1.50;99.90
46508;DHT22;32223;53.654;10.014;2024-01-15T02:19:01;1.50;99.90
46508;DHT22;32223;53.654;10.014;2024-01-15T02:21:26;1.50;99.90
46508;DHT22;32223;53.654;10.014;2024-01-15T02:23:54;1.60;99.90
46508;DHT22;32223;53.654;10.014;2024-01-15T02:26:20;1.50;99.90
46508;DHT22;32223;53.654;10.014;2024-01-15T02:28:46;1.50;99.90
46508;DHT22;32223;53.654;10.014;2024-01-15T02:31:12;1.50;99.90
46508;DHT22;32223;53.654;10.014;2024-01-15T02:33:38;1.50;99.90
46508;DHT22;32223;53.654;10.014;2024-01-15T02:36:03;1.50;99.90
46508;DHT22;32223;53.654;10.014;2024-01-15T02:38:29;1.40;99.90
46508;DHT22;32223;53.654;10.014;2024-01-15T02:40:55;1.40;99.90
46508;DHT22;32223;53.654;10.014;2024-01-15T02:43:21;1.40;99.90
46508;DHT22;32223;53.654;10.014;2024-01-15T02:45:46;1.40;99.90
46508;DHT22;32223;53.654;10.014;2024-01-15T02:48:12;1.40;99.90
46508;DHT22;32223;53.654;10.014;2024-01-15T02:50:38;1.40;99.90
46508;DHT22;32223;53.654;10.014;2024-01-15T02:53:04;1.50;99.90
46508;DHT22;32223;53.654;10.014;2024-01-15T02:55:29;1.40;99.90
46508;DHT22;32223;53.654;10.014;2024-01-15T02:57:55;1.50;99.90
46508;DHT22;32223;53.654;10.014;2024-01-15T03:00:20;1.50;99.90
46508;DHT22;32223;53.654;10.014;2024-01-15T03:02:46;1.50;99.90
46508;DHT22;32223;53.654;10.014;2024-01-15T03:05:12;1.50;99.90
46508;DHT22;32223;53.654;10.014;2024-01-15T03:07:37;1.60;99.90
46508;DHT22;32223;53.654;10.014;2024-01-15T03:10:04;1.50;99.90
46508;DHT22;32223;53.654;10.014;2024-01-15T03:12:30;1.50;99.90
46508;DHT22;32223;53.654;10.014;2024-01-15T03:14:55;1.50;99.90
46508;DHT22;32223;53.654;10.014;2024-01-15T03:17:21;1.60;99.90
46508;DHT22;32223;53.654;10.014;2024-01-15T03:19:46;1.50;99.90
46508;DHT22;32223;53.654;10.014;2024-01-15T03:22:12;1.50;99.90
46508;DHT22;32223;53.654;10.014;2024-01-15T03:24:38;1.50;99.90
46508;DHT22;32223;53.654;10.014;2024-01-15T03:27:03;1.50;99.90
46508;DHT22;32223;53.654;10.014;2024-01-15T03:29:29;1.50;99.90
46508;DHT22;32223;53.654;10.014;2024-01-15T03:31:55;1.60;99.90
46508;DHT22;32223;53.654;10.014;2024-01-15T03:34:20;1.60;99.90
46508;DHT22;32223;53.654;10.014;2024-01-15T03:36:46;1.60;99.90
46508;DHT22;32223;53.654;10.014;2024-01-15T03:39:11;1.60;99.90
46508;DHT22;32223;53.654;10.014;2024-01-15T03:41:37;1.50;99.90
46508;DHT22;32223;53.654;10.014;2024-01-15T03:44:03;1.50;99.90
46508;DHT22;32223;53.654;10.014;2024-01-15T03:46:28;1.40;99.90
46508;DHT22;32223;53.654;10.014;2024-01-15T03:48:54;1.40;99.90
46508;DHT22;32223;53.654;10.014;2024-01-15T03:51:20;1.30;99.90
46508;DHT22;32223;53.654;10.014;2024-01-15T03:53:46;1.30;99.90
46508;DHT22;32223;53.654;10.014;2024-01-15T03:56:12;1.30;99.90
46508;DHT22;32223;53.654;10.014;2024-01-15T03:58:37;1.40;99.90
46508;DHT22;32223;53.654;10.014;2024-01-15T04:01:03;1.40;99.90
46508;DHT22;32223;53.654;10.014;2024-01-15T04:03:29;1.50;99.90
46508;DHT22;32223;53.654;10.014;2024-01-15T04:05:54;1.50;99.90
46508;DHT22;32223;53.654;10.014;2024-01-15T04:08:20;1.50;99.90
46508;DHT22;32223;53.654;10.014;2024-01-15T04:10:46;1.50;99.90
46508;DHT22;32223;53.654;10.014;2024-01-15T04:13:11;1.50;99.90
46508;DHT22;32223;53.654;10.014;2024-01-15T04:15:37;1.50;99.90
46508;DHT22;32223;53.654;10.014;2024-01-15T04:18:03;1.50;99.90
46508;DHT22;32223;53.654;10.014;2024-01-15T04:20:29;1.60;99.90
46508;DHT22;32223;53.654;10.014;2024-01-15T04:22:54;1.60;99.90
46508;DHT22;32223;53.654;10.014;2024-01-15T04:25:20;1.50;99.90
46508;DHT22;32223;53.654;10.014;2024-01-15T04:27:46;1.60;99.90
46508;DHT22;32223;53.654;10.014;2024-01-15T04:30:11;1.60;99.90
46508;DHT22;32223;53.654;10.014;2024-01-15T04:32:37;1.70;99.90
46508;DHT22;32223;53.654;10.014;2024-01-15T04:35:03;1.60;99.90
46508;DHT22;32223;53.654;10.014;2024-01-15T04:37:28;1.70;99.90
46508;DHT22;32223;53.654;10.014;2024-01-15T04:39:54;1.70;99.90
46508;DHT22;32223;53.654;10.014;2024-01-15T04:42:21;1.70;99.90
46508;DHT22;32223;53.654;10.014;2024-01-15T04:44:47;1.70;99.90
46508;DHT22;32223;53.654;10.014;2024-01-15T04:47:12;1.60;99.90
46508;DHT22;32223;53.654;10.014;2024-01-15T04:49:38;1.70;99.90
46508;DHT22;32223;53.654;10.014;2024-01-15T04:52:03;1.70;99.90
46508;DHT22;32223;53.654;10.014;2024-01-15T04:54:29;1.70;99.90
46508;DHT22;32223;53.654;10.014;2024-01-15T04:56:55;1.70;99.90
46508;DHT22;32223;53.654;10.014;2024-01-15T04:59:20;1.70;99.90
46508;DHT22;32223;53.654;10.014;2024-01-15T05:01:46;1.70;99.90
46508;DHT22;32223;53.654;10.014;2024-01-15T05:04:12;1.80;99.90
46508;DHT22;32223;53.654;10.014;2024-01-15T05:06:38;1.80;99.90
46508;DHT22;32223;53.654;10.014;2024-01-15T05:09:03;1.80;99.90
46508;DHT22;32223;53.654;10.014;2024-01-15T05:11:29;1.90;99.90
46508;DHT22;32223;53.654;10.014;2024-01-15T05:14:03;1.90;99.90
46508;DHT22;32223;53.654;10.014;2024-01-15T05:16:28;1.90;99.90
46508;DHT22;32223;53.654;10.014;2024-01-15T05:18:54;1.90;99.90
46508;DHT22;32223;53.654;10.014;2024-01-15T05:21:19;2.00;99.90
46508;DHT22;32223;53.654;10.014;2024-01-15T05:23:45;2.00;99.90
46508;DHT22;32223;53.654;10.014;2024-01-15T05:26:10;2.00;99.90
46508;DHT22;32223;53.654;10.014;2024-01-15T05:28:41;2.00;99.90
46508;DHT22;32223;53.654;10.014;2024-01-15T05:31:06;2.00;99.90
46508;DHT22;32223;53.654;10.014;2024-01-15T05:33:35;2.10;99.90
46508;DHT22;32223;53.654;10.014;2024-01-15T05:36:06;2.10;99.90
46508;DHT22;32223;53.654;10.014;2024-01-15T05:38:32;2.20;99.90
46508;DHT22;32223;53.654;10.014;2024-01-15T05:40:57;2.30;99.90
46508;DHT22;32223;53.654;10.014;2024-01-15T05:43:23;2.30;99.90
46508;DHT22;32223;53.654;10.014;2024-01-15T05:45:48;2.30;99.90
46508;DHT22;32223;53.654;10.014;2024-01-15T05:48:17;2.20;99.90
46508;DHT22;32223;53.654;10.014;2024-01-15T05:50:45;2.20;99.90
46508;DHT22;32223;53.654;10.014;2024-01-15T05:53:10;2.20;99.90
46508;DHT22;32223;53.654;10.014;2024-01-15T05:55:36;2.10;99.90
46508;DHT22;32223;53.654;10.014;2024-01-15T05:58:03;2.10;99.90
46508;DHT22;32223;53.654;10.014;2024-01-15T06:00:34;2.00;99.90
46508;DHT22;32223;53.654;10.014;2024-01-15T06:03:01;2.00;99.90
46508;DHT22;32223;53.654;10.014;2024-01-15T06:05:27;2.00;99.90
46508;DHT22;32223;53.654;10.014;2024-01-15T06:07:55;1.90;99.90
46508;DHT22;32223;53.654;10.014;2024-01-15T06:10:21;1.90;99.90
46508;DHT22;32223;53.654;10.014;2024-01-15T06:12:47;1.80;99.90
46508;DHT22;32223;53.654;10.014;2024-01-15T06:15:19;1.90;99.90
46508;DHT22;32223;53.654;10.014;2024-01-15T06:17:44;1.90;99.90
46508;DHT22;32223;53.654;10.014;2024-01-15T06:20:13;1.90;99.90
46508;DHT22;32223;53.654;10.014;2024-01-15T06:22:39;1.90;99.90
46508;DHT22;32223;53.654;10.014;2024-01-15T06:25:08;1.90;99.90
46508;DHT22;32223;53.654;10.014;2024-01-15T06:27:34;1.90;99.90
46508;DHT22;32223;53.654;10.014;2024-01-15T06:30:00;2.00;99.90
46508;DHT22;32223;53.654;10.014;2024-01-15T06:32:34;1.90;99.90
46508;DHT22;32223;53.654;10.014;2024-01-15T06:35:00;2.00;99.90
46508;DHT22;32223;53.654;10.014;2024-01-15T06:37:25;1.90;99.90
46508;DHT22;32223;53.654;10.014;2024-01-15T06:39:51;2.00;99.90
46508;DHT22;32223;53.654;10.014;2024-01-15T06:42:16;2.00;99.90
46508;DHT22;32223;53.654;10.014;2024-01-15T06:44:42;2.00;99.90
46508;DHT22;32223;53.654;10.014;2024-01-15T06:47:08;2.10;99.90
46508;DHT22;32223;53.654;10.014;2024-01-15T06:49:33;2.20;99.90
46508;DHT22;32223;53.654;10.014;2024-01-15T06:51:59;2.20;99.90
46508;DHT22;32223;53.654;10.014;2024-01-15T06:54:25;2.20;99.90
46508;DHT22;32223;53.654;10.014;2024-01-15T06:56:51;2.20;99.90
46508;DHT22;32223;53.654;10.014;2024-01-15T06:59:17;2.10;99.90
46508;DHT22;32223;53.654;10.014;2024-01-15T07:01:43;2.20;99.90
46508;DHT22;32223;53.654;10.014;2024-01-15T07:04:08;2.20;99.90
46508;DHT22;32223;53.654;10.014;2024-01-15T07:06:34;2.20;99.90
46508;DHT22;32223;53.654;10.014;2024-01-15T07:08:59;2.20;99.90
46508;DHT22;32223;53.654;10.014;2024-01-15T07:11:25;2.20;99.90
46508;DHT22;32223;53.654;10.014;2024-01-15T07:13:51;2.30;99.90
46508;DHT22;32223;53.654;10.014;2024-01-15T07:16:16;2.30;99.90
46508;DHT22;32223;53.654;10.014;2024-01-15T07:18:42;2.30;99.90
46508;DHT22;32223;53.654;10.014;2024-01-15T07:21:08;2.20;99.90
46508;DHT22;32223;53.654;10.014;2024-01-15T07:23:33;2.20;99.90
46508;DHT22;32223;53.654;10.014;2024-01-15T07:25:59;2.20;99.90
46508;DHT22;32223;53.654;10.014;2024-01-15T07:28:24;2.10;99.90
46508;DHT22;32223;53.654;10.014;2024-01-15T07:30:50;2.20;99.90
46508;DHT22;32223;53.654;10.014;2024-01-15T07:33:15;2.30;99.90
46508;DHT22;32223;53.654;10.014;2024-01-15T07:35:41;2.20;99.90
46508;DHT22;32223;53.654;10.014;2024-01-15T07:38:07;2.20;99.90
46508;DHT22;32223;53.654;10.014;2024-01-15T07:40:33;2.10;99.90
46508;DHT22;32223;53.654;10.014;2024-01-15T07:42:59;2.10;99.90
46508;DHT22;32223;53.654;10.014;2024-01-15T07:45:24;2.10;99.90
46508;DHT22;32223;53.654;10.014;2024-01-15T07:47:50;2.10;99.90
46508;DHT22;32223;53.654;10.014;2024-01-15T07:50:15;2.10;99.90
46508;DHT22;32223;53.654;10.014;2024-01-15T07:52:41;2.10;99.90
46508;DHT22;32223;53.654;10.014;2024-01-15T07:55:09;2.10;99.90
46508;DHT22;32223;53.654;10.014;2024-01-15T07:57:35;2.10;99.90
46508;DHT22;32223;53.654;10.014;2024-01-15T08:00:02;2.10;99.90
46508;DHT22;32223;53.654;10.014;2024-01-15T08:02:30;2.10;99.90
46508;DHT22;32223;53.654;10.014;2024-01-15T08:04:56;2.10;99.90
46508;DHT22;32223;53.654;10.014;2024-01-15T08:07:22;2.10;99.90
46508;DHT22;32223;53.654;10.014;2024-01-15T08:09:48;2.10;99.90
46508;DHT22;32223;53.654;10.014;2024-01-15T08:12:14;2.10;99.90
46508;DHT22;32223;53.654;10.014;2024-01-15T08:14:40;2.10;99.90
46508;DHT22;32223;53.654;10.014;2024-01-15T08:17:05;2.10;99.90
46508;DHT22;32223;53.654;10.014;2024-01-15T08:19:31;2.10;99.90
46508;DHT22;32223;53.654;10.014;2024-01-15T08:21:57;2.10;99.90
46508;DHT22;32223;53.654;10.014;2024-01-15T08:24:22;2.20;99.90
46508;DHT22;32223;53.654;10.014;2024-01-15T08:26:48;2.10;99.90
46508;DHT22;32223;53.654;10.014;2024-01-15T08:29:14;2.20;99.90
46508;DHT22;32223;53.654;10.014;2024-01-15T08:31:41;2.20;99.90
46508;DHT22;32223;53.654;10.014;2024-01-15T08:34:06;2.30;99.90
46508;DHT22;32223;53.654;10.014;2024-01-15T08:36:32;2.20;99.90
46508;DHT22;32223;53.654;10.014;2024-01-15T08:39:00;2.20;99.90
46508;DHT22;32223;53.654;10.014;2024-01-15T08:41:25;2.30;99.90
46508;DHT22;32223;53.654;10.014;2024-01-15T08:43:51;2.20;99.90
46508;DHT22;32223;53.654;10.014;2024-01-15T08:46:18;2.30;99.90
46508;DHT22;32223;53.654;10.014;2024-01-15T08:48:44;2.30;99.90
46508;DHT22;32223;53.654;10.014;2024-01-15T08:51:09;2.30;99.90
46508;DHT22;32223;53.654;10.014;2024-01-15T08:53:35;2.30;99.90
46508;DHT22;32223;53.654;10.014;2024-01-15T08:56:00;2.30;99.90
46508;DHT22;32223;53.654;10.014;2024-01-15T08:58:26;2.20;99.90
46508;DHT22;32223;53.654;10.014;2024-01-15T09:00:51;2.30;99.90
46508;DHT22;32223;53.654;10.014;2024-01-15T09:03:17;2.20;99.90
46508;DHT22;32223;53.654;10.014;2024-01-15T09:05:43;2.20;99.90
46508;DHT22;32223;53.654;10.014;2024-01-15T09:08:09;2.20;99.90
46508;DHT22;32223;53.654;10.014;2024-01-15T09:10:34;2.10;99.90
46508;DHT22;32223;53.654;10.014;2024-01-15T09:13:00;2.10;99.90
46508;DHT22;32223;53.654;10.014;2024-01-15T09:15:26;2.00;99.90
46508;DHT22;32223;53.654;10.014;2024-01-15T09:17:51;1.90;99.90
46508;DHT22;32223;53.654;10.014;2024-01-15T09:20:17;1.80;99.90
46508;DHT22;32223;53.654;10.014;2024-01-15T09:22:43;1.70;99.90
46508;DHT22;32223;53.654;10.014;2024-01-15T09:25:10;1.70;99.90
46508;DHT22;32223;53.654;10.014;2024-01-15T09:27:36;1.70;99.90
46508;DHT22;32223;53.654;10.014;2024-01-15T09:30:03;1.70;99.90
46508;DHT22;32223;53.654;10.014;2024-01-15T09:32:29;1.70;99.90
46508;DHT22;32223;53.654;10.014;2024-01-15T09:34:54;1.70;99.90
46508;DHT22;32223;53.654;10.014;2024-01-15T09:37:21;1.70;99.90
46508;DHT22;32223;53.654;10.014;2024-01-15T09:39:46;1.70;99.90
46508;DHT22;32223;53.654;10.014;2024-01-15T09:42:13;1.70;99.90
46508;DHT22;32223;53.654;10.014;2024-01-15T09:44:39;1.60;99.90
46508;DHT22;32223;53.654;10.014;2024-01-15T09:47:05;1.70;99.90
46508;DHT22;32223;53.654;10.014;2024-01-15T09:49:31;1.70;99.90
46508;DHT22;32223;53.654;10.014;2024-01-15T09:51:58;1.60;99.90
46508;DHT22;32223;53.654;10.014;2024-01-15T09:54:24;1.60;99.90
46508;DHT22;32223;53.654;10.014;2024-01-15T09:56:50;1.50;99.90
46508;DHT22;32223;53.654;10.014;2024-01-15T09:59:19;1.50;99.90
46508;DHT22;32223;53.654;10.014;2024-01-15T10:01:45;1.50;99.90
46508;DHT22;32223;53.654;10.014;2024-01-15T10:04:13;1.40;99.90
46508;DHT22;32223;53.654;10.014;2024-01-15T10:06:40;1.40;99.90
46508;DHT22;32223;53.654;10.014;2024-01-15T10:09:09;1.50;99.90
46508;DHT22;32223;53.654;10.014;2024-01-15T10:11:35;1.50;99.90
46508;DHT22;32223;53.654;10.014;2024-01-15T10:14:01;1.50;99.90
46508;DHT22;32223;53.654;10.014;2024-01-15T10:16:27;1.50;99.90
46508;DHT22;32223;53.654;10.014;2024-01-15T10:18:52;1.50;99.90
46508;DHT22;32223;53.654;10.014;2024-01-15T10:21:18;1.60;99.90
46508;DHT22;32223;53.654;10.014;2024-01-15T10:23:43;1.60;99.90
46508;DHT22;32223;53.654;10.014;2024-01-15T10:26:09;1.60;99.90
46508;DHT22;32223;53.654;10.014;2024-01-15T10:28:37;1.60;99.90
46508;DHT22;32223;53.654;10.014;2024-01-15T10:31:03;1.70;99.90
46508;DHT22;32223;53.654;10.014;2024-01-15T10:33:28;1.70;99.90
46508;DHT22;32223;53.654;10.014;2024-01-15T10:35:55;1.70;99.90
46508;DHT22;32223;53.654;10.014;2024-01-15T10:38:22;1.70;99.90
46508;DHT22;32223;53.654;10.014;2024-01-15T10:40:51;1.80;99.90
46508;DHT22;32223;53.654;10.014;2024-01-15T10:43:17;1.80;99.90
46508;DHT22;32223;53.654;10.014;2024-01-15T10:45:45;1.70;99.90
46508;DHT22;32223;53.654;10.014;2024-01-15T10:48:10;1.70;99.90
46508;DHT22;32223;53.654;10.014;2024-01-15T10:50:36;1.70;99.90
46508;DHT22;32223;53.654;10.014;2024-01-15T10:53:03;1.60;99.90
46508;DHT22;32223;53.654;10.014;2024-01-15T10:55:30;1.60;99.90
46508;DHT22;32223;53.654;10.014;2024-01-15T10:57:57;1.60;99.90
46508;DHT22;32223;53.654;10.014;2024-01-15T11:00:23;1.60;99.90
46508;DHT22;32223;53.654;10.014;2024-01-15T11:02:51;1.70;99.90
46508;DHT22;32223;53.654;10.014;2024-01-15T11:05:18;1.70;99.90
46508;DHT22;32223;53.654;10.014;2024-01-15T11:07:50;1.70;99.90
46508;DHT22;32223;53.654;10.014;2024-01-15T11:10:45;1.70;99.90
46508;DHT22;32223;53.654;10.014;2024-01-15T11:23:49;1.80;99.90
46508;DHT22;32223;53.654;10.014;2024-01-15T11:26:36;1.90;99.90
46508;DHT22;32223;53.654;10.014;2024-01-15T11:29:10;1.90;99.90
46508;DHT22;32223;53.654;10.014;2024-01-15T11:34:09;2.00;99.90
46508;DHT22;32223;53.654;10.014;2024-01-15T11:41:57;2.30;99.90
46508;DHT22;32223;53.654;10.014;2024-01-15T11:44:23;2.30;99.90
46508;DHT22;32223;53.654;10.014;2024-01-15T11:46:58;2.30;99.90
46508;DHT22;32223;53.654;10.014;2024-01-15T11:50:02;2.40;99.90
46508;DHT22;32223;53.654;10.014;2024-01-15T11:57:50;2.60;99.90
46508;DHT22;32223;53.654;10.014;2024-01-15T12:00:16;2.60;99.90
46508;DHT22;32223;53.654;10.014;2024-01-15T12:02:44;2.60;99.90
46508;DHT22;32223;53.654;10.014;2024-01-15T12:05:12;2.60;99.90
46508;DHT22;32223;53.654;10.014;2024-01-15T12:07:42;2.60;99.90
46508;DHT22;32223;53.654;10.014;2024-01-15T12:10:09;2.60;99.90
46508;DHT22;32223;53.654;10.014;2024-01-15T12:15:16;2.50;99.90
46508;DHT22;32223;53.654;10.014;2024-01-15T12:17:42;2.40;99.90
46508;DHT22;32223;53.654;10.014;2024-01-15T12:20:07;2.50;99.90
46508;DHT22;32223;53.654;10.014;2024-01-15T12:22:33;2.40;99.90
46508;DHT22;32223;53.654;10.014;2024-01-15T12:24:59;2.30;99.90
46508;DHT22;32223;53.654;10.014;2024-01-15T12:27:25;2.20;99.90
46508;DHT22;32223;53.654;10.014;2024-01-15T12:29:53;2.20;99.90
46508;DHT22;32223;53.654;10.014;2024-01-15T12:32:19;2.10;99.90
46508;DHT22;32223;53.654;10.014;2024-01-15T12:34:45;2.20;99.90
46508;DHT22;32223;53.654;10.014;2024-01-15T12:37:11;2.20;99.90
46508;DHT22;32223;53.654;10.014;2024-01-15T12:39:37;2.20;99.90
46508;DHT22;32223;53.654;10.014;2024-01-15T12:42:03;2.20;99.90
46508;DHT22;32223;53.654;10.014;2024-01-15T12:44:29;2.20;99.90
46508;DHT22;32223;53.654;10.014;2024-01-15T12:46:55;2.20;99.90
46508;DHT22;32223;53.654;10.014;2024-01-15T12:49:23;2.20;99.90
46508;DHT22;32223;53.654;10.014;2024-01-15T12:51:59;2.20;99.90
46508;DHT22;32223;53.654;10.014;2024-01-15T12:54:25;2.20;99.90
46508;DHT22;32223;53.654;10.014;2024-01-15T12:56:51;2.20;99.90
46508;DHT22;32223;53.654;10.014;2024-01-15T12:59:18;2.30;99.90
46508;DHT22;32223;53.654;10.014;2024-01-15T13:01:45;2.30;99.90
46508;DHT22;32223;53.654;10.014;2024-01-15T13:04:20;2.30;99.90
46508;DHT22;32223;53.654;10.014;2024-01-15T13:06:45;2.40;99.90
46508;DHT22;32223;53.654;10.014;2024-01-15T13:09:11;2.40;99.90
46508;DHT22;32223;53.654;10.014;2024-01-15T13:11:37;2.40;99.90
46508;DHT22;32223;53.654;10.014;2024-01-15T13:14:02;2.40;99.90
46508;DHT22;32223;53.654;10.014;2024-01-15T13:16:28;2.40;99.90
46508;DHT22;32223;53.654;10.014;2024-01-15T13:18:54;2.50;99.90
46508;DHT22;32223;53.654;10.014;2024-01-15T13:21:21;2.50;99.90
46508;DHT22;32223;53.654;10.014;2024-01-15T13:23:47;2.50;99.90
46508;DHT22;32223;53.654;10.014;2024-01-15T13:26:13;2.50;99.90
46508;DHT22;32223;53.654;10.014;2024-01-15T13:28:39;2.50;99.90
46508;DHT22;32223;53.654;10.014;2024-01-15T13:31:04;2.40;99.90
46508;DHT22;32223;53.654;10.014;2024-01-15T13:33:30;2.30;99.90
46508;DHT22;32223;53.654;10.014;2024-01-15T13:35:56;2.30;99.90
46508;DHT22;32223;53.654;10.014;2024-01-15T13:38:21;2.30;99.90
46508;DHT22;32223;53.654;10.014;2024-01-15T13:40:47;2.30;99.90
46508;DHT22;32223;53.654;10.014;2024-01-15T13:43:13;2.30;99.90
46508;DHT22;32223;53.654;10.014;2024-01-15T13:45:42;2.20;99.90
46508;DHT22;32223;53.654;10.014;2024-01-15T13:48:08;2.20;99.90
46508;DHT22;32223;53.654;10.014;2024-01-15T13:50:35;2.10;99.90
46508;DHT22;32223;53.654;10.014;2024-01-15T13:53:01;2.10;99.90
46508;DHT22;32223;53.654;10.014;2024-01-15T13:55:27;2.10;99.90
46508;DHT22;32223;53.654;10.014;2024-01-15T13:57:54;2.00;99.90
46508;DHT22;32223;53.654;10.014;2024-01-15T14:00:20;1.90;99.90
46508;DHT22;32223;53.654;10.014;2024-01-15T14:02:46;1.90;99.90
46508;DHT22;32223;53.654;10.014;2024-01-15T14:05:12;1.80;99.90
46508;DHT22;32223;53.654;10.014;2024-01-15T14:07:41;1.80;99.90
46508;DHT22;32223;53.654;10.014;2024-01-15T14:10:09;1.70;99.90
46508;DHT22;32223;53.654;10.014;2024-01-15T14:12:35;1.90;99.90
46508;DHT22;32223;53.654;10.014;2024-01-15T14:15:04;2.00;99.90
46508;DHT22;32223;53.654;10.014;2024-01-15T14:17:31;2.00;99.90
46508;DHT22;32223;53.654;10.014;2024-01-15T14:19:57;2.10;99.90
46508;DHT22;32223;53.654;10.014;2024-01-15T14:22:22;2.00;99.90
46508;DHT22;32223;53.654;10.014;2024-01-15T14:24:48;2.00;99.90
46508;DHT22;32223;53.654;10.014;2024-01-15T14:27:14;1.90;99.90
46508;DHT22;32223;53.654;10.014;2024-01-15T14:29:40;1.80;99.90
46508;DHT22;32223;53.654;10.014;2024-01-15T14:32:06;1.70;99.90
46508;DHT22;32223;53.654;10.014;2024-01-15T14:34:32;1.60;99.90
46508;DHT22;32223;53.654;10.014;2024-01-15T14:36:57;1.50;99.90
46508;DHT22;32223;53.654;10.014;2024-01-15T14:39:23;1.50;99.90
46508;DHT22;32223;53.654;10.014;2024-01-15T14:41:49;1.40;99.90
46508;DHT22;32223;53.654;10.014;2024-01-15T14:44:15;1.40;99.90
46508;DHT22;32223;53.654;10.014;2024-01-15T14:46:40;1.40;99.90
46508;DHT22;32223;53.654;10.014;2024-01-15T14:49:06;1.50;99.90
46508;DHT22;32223;53.654;10.014;2024-01-15T14:51:32;1.50;99.90
46508;DHT22;32223;53.654;10.014;2024-01-15T14:53:57;1.50;99.90
46508;DHT22;32223;53.654;10.014;2024-01-15T14:56:23;1.40;99.90
46508;DHT22;32223;53.654;10.014;2024-01-15T14:58:49;1.30;99.90
46508;DHT22;32223;53.654;10.014;2024-01-15T15:01:15;1.30;99.90
46508;DHT22;32223;53.654;10.014;2024-01-15T15:03:40;1.20;99.90
46508;DHT22;32223;53.654;10.014;2024-01-15T15:06:06;1.20;99.90
46508;DHT22;32223;53.654;10.014;2024-01-15T15:08:35;1.10;99.90
46508;DHT22;32223;53.654;10.014;2024-01-15T15:11:02;1.10;99.90
46508;DHT22;32223;53.654;10.014;2024-01-15T15:13:28;1.10;99.90
46508;DHT22;32223;53.654;10.014;2024-01-15T15:15:53;1.00;99.90
46508;DHT22;32223;53.654;10.014;2024-01-15T15:18:21;0.90;99.90
46508;DHT22;32223;53.654;10.014;2024-01-15T15:20:50;0.80;99.90
46508;DHT22;32223;53.654;10.014;2024-01-15T15:23:16;0.70;99.90
46508;DHT22;32223;53.654;10.014;2024-01-15T15:25:42;0.70;99.90
46508;DHT22;32223;53.654;10.014;2024-01-15T15:28:08;0.60;99.90
46508;DHT22;32223;53.654;10.014;2024-01-15T15:30:35;0.50;99.90
46508;DHT22;32223;53.654;10.014;2024-01-15T15:33:00;0.40;99.90
46508;DHT22;32223;53.654;10.014;2024-01-15T15:35:27;0.40;99.90
46508;DHT22;32223;53.654;10.014;2024-01-15T15:37:53;0.40;99.90
46508;DHT22;32223;53.654;10.014;2024-01-15T15:40:18;0.20;99.90
46508;DHT22;32223;53.654;10.014;2024-01-15T15:42:44;0.10;99.90
46508;DHT22;32223;53.654;10.014;2024-01-15T15:45:09;0.00;99.90
46508;DHT22;32223;53.654;10.014;2024-01-15T15:47:35;0.00;99.90
46508;DHT22;32223;53.654;10.014;2024-01-15T15:50:01;0.00;99.90